createdAt,value
2022-08-25T00:03:15.998Z,38.51
2022-08-25T00:08:10.203Z,38.48
2022-08-25T00:13:04.632Z,38.54
2022-08-25T00:17:58.598Z,39.03
2022-08-25T00:22:51.657Z,38.82
2022-08-25T00:27:45.800Z,38.98
2022-08-25T00:32:40.917Z,39.26
2022-08-25T00:37:34.196Z,38.99
2022-08-25T00:42:27.463Z,39.20
2022-08-25T00:47:22.159Z,38.78
2022-08-25T00:52:27.476Z,38.92
2022-08-25T00:57:34.723Z,38.79
2022-08-25T01:02:32.742Z,38.92
2022-08-25T01:07:25.964Z,38.79
2022-08-25T01:12:19.959Z,38.61
2022-08-25T01:17:14.214Z,38.55
2022-08-25T01:22:07.371Z,38.82
2022-08-25T01:27:00.632Z,38.92
2022-08-25T01:31:59.755Z,38.85
2022-08-25T01:36:53.619Z,38.79
2022-08-25T01:42:11.963Z,38.22
2022-08-25T01:47:06.698Z,38.64
2022-08-25T01:52:10.971Z,38.64
2022-08-25T01:57:05.910Z,38.25
2022-08-25T02:02:00.358Z,38.83
2022-08-25T02:06:54.396Z,38.47
2022-08-25T02:11:48.346Z,38.32
2022-08-25T02:16:44.570Z,38.81
2022-08-25T02:21:39.067Z,39.04
2022-08-25T02:26:32.947Z,39.00
2022-08-25T02:31:26.717Z,39.14
2022-08-25T02:36:20.691Z,39.38
2022-08-25T02:41:20.326Z,39.08
2022-08-25T02:46:14.404Z,39.45
2022-08-25T02:51:09.780Z,39.59
2022-08-25T02:56:05.556Z,39.29
2022-08-25T03:00:59.921Z,39.80
2022-08-25T03:05:53.712Z,39.15
2022-08-25T03:10:48.015Z,39.50
2022-08-25T03:15:47.929Z,39.25
2022-08-25T03:20:43.863Z,39.61
2022-08-25T03:25:54.488Z,39.59
2022-08-25T03:30:55.726Z,39.56
2022-08-25T03:35:48.723Z,39.78
2022-08-25T03:40:42.397Z,39.42
2022-08-25T03:45:40.249Z,39.85
2022-08-25T03:50:35.123Z,39.54
2022-08-25T03:55:29.936Z,39.75
2022-08-25T04:00:26.228Z,39.64
2022-08-25T04:05:20.877Z,39.55
2022-08-25T04:10:14.717Z,39.57
2022-08-25T04:15:10.484Z,39.54
2022-08-25T04:20:05.668Z,40.01
2022-08-25T04:25:00.854Z,40.19
2022-08-25T04:29:54.163Z,40.04
2022-08-25T04:34:49.945Z,40.32
2022-08-25T04:39:43.799Z,40.38
2022-08-25T04:44:37.875Z,40.08
2022-08-25T04:49:31.093Z,40.07
2022-08-25T04:54:25.500Z,40.50
2022-08-25T04:59:19.668Z,40.69
2022-08-25T05:04:27.711Z,41.23
2022-08-25T05:09:23.162Z,41.31
2022-08-25T05:14:19.324Z,41.54
2022-08-25T05:19:13.947Z,41.37
2022-08-25T05:24:08.251Z,41.31
2022-08-25T05:29:05.114Z,40.91
2022-08-25T05:33:59.660Z,40.96
2022-08-25T05:38:53.956Z,41.06
2022-08-25T05:43:50.102Z,40.44
2022-08-25T05:48:44.123Z,40.32
2022-08-25T05:53:39.959Z,40.24
2022-08-25T05:58:33.364Z,40.06
2022-08-25T06:03:27.897Z,39.89
2022-08-25T06:08:22.137Z,40.05
2022-08-25T06:13:16.499Z,39.63
2022-08-25T06:18:15.250Z,39.96
2022-08-25T06:23:09.305Z,40.08
2022-08-25T06:28:03.100Z,40.25
2022-08-25T06:32:56.917Z,40.24
2022-08-25T06:37:50.945Z,40.47
2022-08-25T06:42:44.308Z,40.89
2022-08-25T06:47:37.428Z,41.07
2022-08-25T06:52:31.060Z,41.31
2022-08-25T06:57:25.717Z,41.25
2022-08-25T07:02:21.988Z,41.19
2022-08-25T07:07:16.761Z,41.73
2022-08-25T07:12:10.901Z,40.90
2022-08-25T07:17:10.541Z,41.06
2022-08-25T07:22:06.965Z,41.45
2022-08-25T07:27:03.827Z,41.33
2022-08-25T07:31:58.538Z,41.68
2022-08-25T07:36:52.411Z,41.21
2022-08-25T07:41:47.093Z,41.42
2022-08-25T07:46:45.132Z,41.48
2022-08-25T07:51:44.087Z,40.74
2022-08-25T07:56:56.824Z,40.65
2022-08-25T08:01:51.898Z,40.61
2022-08-25T08:06:45.941Z,40.46
2022-08-25T08:11:45.181Z,40.39
2022-08-25T08:16:47.578Z,40.43
2022-08-25T08:21:42.072Z,39.50
2022-08-25T08:26:57.786Z,39.26
2022-08-25T08:31:50.025Z,39.77
2022-08-25T08:36:45.370Z,39.81
2022-08-25T08:42:11.434Z,39.88
2022-08-25T08:47:15.410Z,39.41
2022-08-25T08:52:13.437Z,40.02
2022-08-25T08:57:11.502Z,39.37
2022-08-25T09:02:07.007Z,39.53
2022-08-25T09:07:15.335Z,39.21
2022-08-25T09:12:18.411Z,39.16
2022-08-25T09:18:00.096Z,39.75
2022-08-25T09:23:10.264Z,39.53
2022-08-25T09:28:04.738Z,40.03
2022-08-25T09:33:05.508Z,39.65
2022-08-25T09:38:01.337Z,39.51
2022-08-25T09:42:58.628Z,40.27
2022-08-25T09:47:53.277Z,40.47
2022-08-25T09:52:48.149Z,40.86
2022-08-25T09:57:52.962Z,40.38
2022-08-25T10:03:22.798Z,40.34
2022-08-25T10:08:32.283Z,40.22
2022-08-25T10:13:40.346Z,39.94
2022-08-25T10:18:34.970Z,40.46
2022-08-25T10:23:28.034Z,40.28
2022-08-25T10:29:01.113Z,39.95
2022-08-25T10:34:12.921Z,40.20
2022-08-25T10:39:34.055Z,39.80
2022-08-25T10:45:03.740Z,40.02
2022-08-25T10:50:50.287Z,40.16
2022-08-25T10:56:04.085Z,40.15
2022-08-25T11:01:12.264Z,39.79
2022-08-25T11:06:43.284Z,40.36
2022-08-25T11:11:57.589Z,40.16
2022-08-25T11:17:10.031Z,39.86
2022-08-25T11:22:11.886Z,40.26
2022-08-25T11:27:13.635Z,39.80
2022-08-25T11:32:09.208Z,40.01
2022-08-25T11:37:16.380Z,40.25
2022-08-25T11:42:29.242Z,40.24
2022-08-25T11:47:46.845Z,39.96
2022-08-25T11:53:03.027Z,39.96
2022-08-25T11:58:34.813Z,40.43
2022-08-25T12:03:37.527Z,39.84
2022-08-25T12:09:13.624Z,40.27
2022-08-25T12:14:35.636Z,40.03
2022-08-25T12:19:38.111Z,40.11
2022-08-25T12:24:50.904Z,39.81
2022-08-25T12:29:50.852Z,40.39
2022-08-25T12:35:07.473Z,40.06
2022-08-25T12:40:04.071Z,40.23
2022-08-25T12:45:14.936Z,40.30
2022-08-25T12:50:26.419Z,40.13
2022-08-25T12:55:24.181Z,40.41
2022-08-25T13:01:01.113Z,39.96
2022-08-25T13:06:23.256Z,40.21
2022-08-25T13:11:24.187Z,40.14
2022-08-25T13:16:30.216Z,39.93
2022-08-25T13:21:42.585Z,39.81
2022-08-25T13:26:48.111Z,40.06
2022-08-25T13:32:14.434Z,39.97
2022-08-25T13:37:33.369Z,40.32
2022-08-25T13:42:28.823Z,40.21
2022-08-25T13:47:43.548Z,39.85
2022-08-25T13:52:40.854Z,40.28
2022-08-25T13:57:42.145Z,40.20
2022-08-25T14:02:41.015Z,39.76
2022-08-25T14:07:39.329Z,40.39
2022-08-25T14:12:45.238Z,39.82
2022-08-25T14:17:41.740Z,39.96
2022-08-25T14:22:35.884Z,40.25
2022-08-25T14:27:30.419Z,39.88
2022-08-25T14:32:24.504Z,39.94
2022-08-25T14:37:25.601Z,40.00
2022-08-25T14:42:19.776Z,40.12
2022-08-25T14:47:13.833Z,39.82
2022-08-25T14:52:30.835Z,40.01
2022-08-25T14:57:25.648Z,39.90
2022-08-25T15:02:22.931Z,40.40
2022-08-25T15:07:42.308Z,40.25
2022-08-25T15:12:47.450Z,40.13
2022-08-25T15:17:44.499Z,40.66
2022-08-25T15:22:38.554Z,40.37
2022-08-25T15:27:32.632Z,40.12
2022-08-25T15:32:25.401Z,40.06
2022-08-25T15:37:25.589Z,40.17
2022-08-25T15:42:20.385Z,40.51
2022-08-25T15:47:15.226Z,40.58
2022-08-25T15:52:10.816Z,40.53
2022-08-25T15:57:09.519Z,40.49
2022-08-25T16:02:05.136Z,40.19
2022-08-25T16:07:08.539Z,40.16
2022-08-25T16:12:08.451Z,40.58
2022-08-25T16:17:02.100Z,40.14
2022-08-25T16:21:55.521Z,40.59
2022-08-25T16:26:51.795Z,40.49
2022-08-25T16:31:54.933Z,40.40
2022-08-25T16:36:51.869Z,40.41
2022-08-25T16:41:46.986Z,40.82
2022-08-25T16:46:40.871Z,40.89
2022-08-25T16:51:37.722Z,40.92
2022-08-25T16:56:33.552Z,40.98
2022-08-25T17:01:28.821Z,40.93
2022-08-25T17:06:24.405Z,41.07
2022-08-25T17:11:30.421Z,40.88
2022-08-25T17:16:31.260Z,40.96
2022-08-25T17:21:27.873Z,40.85
2022-08-25T17:26:27.497Z,41.03
2022-08-25T17:31:21.478Z,40.85
2022-08-25T17:36:17.332Z,40.58
2022-08-25T17:41:12.537Z,40.98
2022-08-25T17:46:08.491Z,41.06
2022-08-25T17:51:01.710Z,40.88
2022-08-25T17:56:04.373Z,40.56
2022-08-25T18:00:58.932Z,41.09
2022-08-25T18:05:52.904Z,40.81
2022-08-25T18:10:46.932Z,41.20
2022-08-25T18:15:42.326Z,41.38
2022-08-25T18:20:36.496Z,41.18
2022-08-25T18:25:31.541Z,41.12
2022-08-25T18:30:26.196Z,41.33
2022-08-25T18:35:21.445Z,41.00
2022-08-25T18:40:26.191Z,41.45
2022-08-25T18:45:19.860Z,41.42
2022-08-25T18:50:16.525Z,41.72
2022-08-25T18:55:13.301Z,41.42
2022-08-25T19:00:09.778Z,41.23
2022-08-25T19:05:07.370Z,41.58
2022-08-25T19:10:02.479Z,41.66
2022-08-25T19:14:56.789Z,41.97
2022-08-25T19:19:51.893Z,41.63
2022-08-25T19:24:46.397Z,41.83
2022-08-25T19:29:40.312Z,41.68
2022-08-25T19:34:39.475Z,42.05
2022-08-25T19:39:36.282Z,42.26
2022-08-25T19:44:33.119Z,42.81
2022-08-25T19:49:31.864Z,42.39
2022-08-25T19:54:36.567Z,42.28
2022-08-25T19:59:43.099Z,42.50
2022-08-25T20:04:37.243Z,42.14
2022-08-25T20:09:38.992Z,42.07
2022-08-25T20:14:39.967Z,41.73
2022-08-25T20:19:35.799Z,42.12
2022-08-25T20:24:47.883Z,42.05
2022-08-25T20:29:44.638Z,42.08
2022-08-25T20:34:39.576Z,42.21
2022-08-25T20:39:35.893Z,42.25
2022-08-25T20:44:41.924Z,42.72
2022-08-25T20:49:37.804Z,42.75
2022-08-25T20:54:32.724Z,42.73
2022-08-25T20:59:28.333Z,42.50
2022-08-25T21:04:27.002Z,42.76
2022-08-25T21:09:25.332Z,42.62
2022-08-25T21:14:18.940Z,42.62
2022-08-25T21:19:26.804Z,42.95
2022-08-25T21:24:25.932Z,42.70
2022-08-25T21:29:22.698Z,43.05
2022-08-25T21:34:20.894Z,42.93
2022-08-25T21:39:16.732Z,43.08
2022-08-25T21:44:10.962Z,42.96
2022-08-25T21:49:06.794Z,43.13
2022-08-25T21:54:12.022Z,43.22
2022-08-25T21:59:12.759Z,43.24
2022-08-25T22:04:11.531Z,43.29
2022-08-25T22:09:08.918Z,43.43
2022-08-25T22:14:01.448Z,43.76
2022-08-25T22:18:55.415Z,43.56
2022-08-25T22:23:50.808Z,43.93
2022-08-25T22:28:48.086Z,43.71
2022-08-25T22:33:45.659Z,43.62
2022-08-25T22:38:44.188Z,44.17
2022-08-25T22:43:39.310Z,44.21
2022-08-25T22:48:32.389Z,44.01
2022-08-25T22:53:28.981Z,44.22
2022-08-25T22:58:25.261Z,44.21
2022-08-25T23:03:18.502Z,43.81
2022-08-25T23:08:12.541Z,44.19
2022-08-25T23:13:09.584Z,44.44
2022-08-25T23:18:09.369Z,44.29
2022-08-25T23:23:03.813Z,44.53
2022-08-25T23:28:02.132Z,44.58
2022-08-25T23:32:56.783Z,44.17
2022-08-25T23:37:53.122Z,44.30
2022-08-25T23:42:48.231Z,43.82
2022-08-25T23:47:45.176Z,43.89
2022-08-25T23:52:40.245Z,44.06
2022-08-25T23:57:35.027Z,43.83
